LIRQ/FLR METAR and TAF weather

Enter ICAO airport designator
Station Type Date Time Source
LIRQ METAR 2019/06/19 06:50 UTC NOAA

LIRQ 190650Z VRB02KT CAVOK 23/17 Q1014


Station Type Date Time Source
LIRQ Decoded METAR 2019/06/19 06:50 UTC NOAA

Firenze / Peretola, Italy (LIRQ) 43-48N 011-12E 38M
Jun 19, 2019 - 02:50 AM EDT / 2019.06.19 0650 UTC
Wind: Variable at 2 MPH (2 KT):0
Visibility: greater than 7 mile(s):0
Temperature: 73 F (23 C)
Dew Point: 62 F (17 C)
Relative Humidity: 68%
Pressure (altimeter): 29.94 in. Hg (1014 hPa)
ob: LIRQ 190650Z VRB02KT CAVOK 23/17 Q1014
cycle: 7

Station Type Date Time Source
LIRQ TAF 2019/06/19 06:21 UTC NOAA

TAF LIRQ 190500Z 1906/2006 VRB04KT 9999 FEW040
BECMG 1909/1911 24010KT
BECMG 1916/1918 VRB05KT

Example: see airport list